Time;durP1;ratioP1;P1;durP2;ratioP2;P2;SDS_P1;SDS_P2;PMS_P1;PMS_P2;Temp;Humidity;BMP_temperature;BMP_pressure;BME280_temperature;BME280_humidity;BME280_pressure;Samples;Min_cycle;Max_cycle;Signal;HPM_P1;HPM_P2
2021/04/07 00:01:59;;;;;;;7.47;2.40;;;3.50;99.90;;;;;;5104537;28;20265;-75
2021/04/07 00:04:25;;;;;;;10.23;2.70;;;3.60;99.90;;;;;;5140941;27;20275;-75
2021/04/07 00:06:54;;;;;;;9.30;2.13;;;3.40;99.90;;;;;;5104658;28;20617;-75
2021/04/07 00:09:19;;;;;;;15.50;2.30;;;3.30;99.90;;;;;;5096073;28;20166;-75
2021/04/07 00:11:45;;;;;;;5.80;1.90;;;3.20;99.90;;;;;;5095821;28;20174;-75
2021/04/07 00:14:10;;;;;;;7.43;2.17;;;3.10;99.90;;;;;;5114273;28;20213;-75
2021/04/07 00:16:36;;;;;;;6.77;1.60;;;3.10;99.90;;;;;;5114750;28;20178;-75
2021/04/07 00:19:06;;;;;;;9.03;2.23;;;3.00;99.90;;;;;;5115249;28;20181;-75
2021/04/07 00:21:32;;;;;;;18.47;2.30;;;3.00;99.90;;;;;;5114219;28;20176;-75
2021/04/07 00:23:57;;;;;;;7.03;1.83;;;3.00;99.90;;;;;;5114376;28;20260;-75
2021/04/07 00:26:23;;;;;;;12.50;2.10;;;3.00;99.90;;;;;;5101795;28;20178;-75
2021/04/07 00:28:48;;;;;;;8.73;2.10;;;2.90;99.90;;;;;;5095830;28;20245;-75
2021/04/07 00:31:14;;;;;;;8.47;1.60;;;2.90;99.90;;;;;;5105840;28;20644;-74
2021/04/07 00:33:39;;;;;;;14.73;2.23;;;2.90;99.90;;;;;;5102566;28;20201;-74
2021/04/07 00:36:05;;;;;;;11.20;1.73;;;2.80;99.90;;;;;;5106427;27;20582;-76
2021/04/07 00:38:31;;;;;;;15.57;2.20;;;2.80;99.90;;;;;;5115127;28;20173;-75
2021/04/07 00:40:57;;;;;;;10.63;2.43;;;2.70;99.90;;;;;;5113241;28;20177;-75
2021/04/07 00:43:22;;;;;;;9.90;1.80;;;2.60;99.90;;;;;;5110383;28;20192;-75
2021/04/07 00:45:48;;;;;;;7.50;1.83;;;2.60;99.90;;;;;;5115794;28;20173;-74
2021/04/07 00:48:14;;;;;;;15.30;1.93;;;2.60;99.90;;;;;;5103205;28;20317;-75
2021/04/07 00:50:39;;;;;;;6.97;1.77;;;2.50;99.90;;;;;;5093621;28;20186;-74
2021/04/07 00:53:05;;;;;;;18.23;2.10;;;2.60;99.90;;;;;;5095409;28;20216;-75
2021/04/07 00:55:36;;;;;;;8.90;1.77;;;2.70;99.90;;;;;;5096961;28;20299;-76
2021/04/07 00:58:03;;;;;;;19.73;2.30;;;2.70;99.90;;;;;;5095262;28;20197;-75
2021/04/07 01:00:29;;;;;;;12.20;1.90;;;2.90;99.90;;;;;;5095285;28;20177;-75
2021/04/07 01:02:57;;;;;;;4.30;1.80;;;2.90;99.90;;;;;;5077112;28;20174;-75
2021/04/07 01:05:23;;;;;;;8.93;1.63;;;3.00;99.90;;;;;;5100594;28;20205;-75
2021/04/07 01:07:49;;;;;;;6.43;1.57;;;3.10;99.90;;;;;;5097351;28;20170;-75
2021/04/07 01:10:16;;;;;;;3.90;1.30;;;3.10;99.90;;;;;;5113318;28;20186;-75
2021/04/07 01:12:43;;;;;;;10.10;1.77;;;3.20;99.90;;;;;;5112610;28;20169;-75
2021/04/07 01:15:10;;;;;;;6.80;1.83;;;3.20;99.90;;;;;;5114142;28;20514;-75
2021/04/07 01:17:36;;;;;;;6.13;1.70;;;3.20;99.90;;;;;;5099799;28;20174;-75
2021/04/07 01:20:11;;;;;;;11.73;2.20;;;3.10;99.90;;;;;;5108448;27;20181;-75
2021/04/07 01:22:38;;;;;;;12.07;1.80;;;3.00;99.90;;;;;;5104742;28;20546;-75
2021/04/07 01:25:06;;;;;;;7.33;1.50;;;3.00;99.90;;;;;;5101988;28;20532;-76
2021/04/07 01:27:31;;;;;;;11.90;2.00;;;3.10;99.90;;;;;;5076555;28;20528;-76
2021/04/07 01:29:57;;;;;;;5.77;1.83;;;3.10;99.90;;;;;;5096224;28;20166;-75
2021/04/07 01:32:23;;;;;;;12.20;1.83;;;3.20;99.90;;;;;;5108528;28;20189;-74
2021/04/07 01:34:48;;;;;;;14.73;2.23;;;3.10;99.90;;;;;;5105017;28;20247;-74
2021/04/07 01:37:14;;;;;;;10.93;1.93;;;3.00;99.90;;;;;;5114407;28;20182;-75
2021/04/07 01:39:41;;;;;;;10.83;1.93;;;2.80;99.90;;;;;;5114500;28;20173;-75
2021/04/07 01:42:07;;;;;;;13.00;1.90;;;2.60;99.90;;;;;;5111062;28;20173;-75
2021/04/07 01:44:35;;;;;;;13.53;2.43;;;2.50;99.90;;;;;;5100562;28;20181;-75
2021/04/07 01:47:01;;;;;;;7.33;1.70;;;2.40;99.90;;;;;;5109507;28;20196;-75
2021/04/07 01:49:28;;;;;;;11.13;2.50;;;2.40;99.90;;;;;;5094677;28;20166;-75
2021/04/07 01:51:54;;;;;;;12.60;2.00;;;2.30;99.90;;;;;;5094063;28;20165;-76
2021/04/07 01:54:20;;;;;;;8.60;1.53;;;2.30;99.90;;;;;;5099104;28;20309;-75
2021/04/07 01:56:53;;;;;;;6.17;1.83;;;2.30;99.90;;;;;;5114539;28;20174;-75
2021/04/07 01:59:23;;;;;;;11.20;2.53;;;2.40;99.90;;;;;;5113500;28;20617;-75
2021/04/07 02:01:51;;;;;;;5.40;1.57;;;2.50;99.90;;;;;;5114634;28;20185;-75
2021/04/07 02:04:17;;;;;;;11.40;2.00;;;2.70;99.90;;;;;;5111387;28;20537;-75
2021/04/07 02:06:43;;;;;;;7.73;2.23;;;2.80;99.90;;;;;;5113575;28;20181;-75
2021/04/07 02:09:09;;;;;;;4.60;1.70;;;3.00;99.90;;;;;;5112701;28;20529;-76
2021/04/07 02:11:38;;;;;;;9.90;1.87;;;3.10;99.90;;;;;;5114119;28;20196;-75
2021/04/07 02:14:04;;;;;;;8.73;1.67;;;3.30;99.90;;;;;;5113980;28;20269;-75
2021/04/07 02:16:29;;;;;;;6.70;1.50;;;3.40;99.90;;;;;;5096067;28;20697;-75
2021/04/07 02:18:55;;;;;;;10.87;1.47;;;3.40;99.90;;;;;;5113030;28;20570;-74
2021/04/07 02:21:21;;;;;;;9.73;1.80;;;3.50;99.90;;;;;;5112312;28;20198;-75
2021/04/07 02:23:46;;;;;;;7.57;1.37;;;3.50;99.90;;;;;;5112908;28;20178;-75
2021/04/07 02:26:12;;;;;;;11.73;2.00;;;3.50;99.90;;;;;;5114195;28;20214;-75
2021/04/07 02:28:37;;;;;;;7.37;1.40;;;3.40;99.90;;;;;;5113944;28;20169;-75
2021/04/07 02:31:03;;;;;;;8.07;1.47;;;3.40;99.90;;;;;;5112937;28;20169;-75
2021/04/07 02:33:29;;;;;;;9.87;1.30;;;3.30;99.90;;;;;;5112583;28;20661;-75
2021/04/07 02:35:54;;;;;;;7.70;1.60;;;3.10;99.90;;;;;;5113286;28;20237;-75
2021/04/07 02:38:20;;;;;;;5.63;1.47;;;3.10;99.90;;;;;;5111912;28;20177;-75
2021/04/07 02:40:46;;;;;;;8.00;1.53;;;3.10;99.90;;;;;;5126520;28;20215;-76
2021/04/07 02:43:12;;;;;;;5.40;1.47;;;3.10;99.90;;;;;;5093654;28;20196;-75
2021/04/07 02:45:37;;;;;;;6.37;1.93;;;3.10;99.90;;;;;;5092314;28;20177;-75
2021/04/07 02:48:03;;;;;;;6.30;1.70;;;2.90;99.90;;;;;;5093609;28;20173;-75
2021/04/07 02:50:29;;;;;;;5.03;1.57;;;2.90;99.90;;;;;;5092246;28;20194;-75
2021/04/07 02:52:54;;;;;;;4.43;1.70;;;2.70;99.90;;;;;;5106865;28;20525;-75
2021/04/07 02:55:20;;;;;;;7.10;1.50;;;2.60;99.90;;;;;;5112792;28;20226;-75
2021/04/07 02:57:46;;;;;;;18.13;1.73;;;2.40;99.90;;;;;;5093508;28;20248;-75
2021/04/07 03:00:13;;;;;;;8.80;1.60;;;2.30;99.90;;;;;;5109406;28;20209;-75
2021/04/07 03:02:38;;;;;;;12.17;1.37;;;2.10;99.90;;;;;;5113120;28;20178;-75
2021/04/07 03:05:05;;;;;;;14.90;1.60;;;1.90;99.90;;;;;;5113534;28;20189;-75
2021/04/07 03:07:31;;;;;;;12.47;1.60;;;1.90;99.90;;;;;;5113747;28;20209;-75
2021/04/07 03:09:57;;;;;;;4.77;1.50;;;2.00;99.90;;;;;;5114578;28;20179;-75
2021/04/07 03:12:22;;;;;;;6.37;1.53;;;2.10;99.90;;;;;;5116501;28;20501;-76
2021/04/07 03:14:48;;;;;;;19.57;1.77;;;2.20;99.90;;;;;;5096100;28;20202;-75
2021/04/07 03:17:14;;;;;;;12.67;2.10;;;2.30;99.90;;;;;;5096872;28;20527;-75
2021/04/07 03:19:40;;;;;;;3.23;1.40;;;2.40;99.90;;;;;;5130148;27;20173;-75
2021/04/07 03:22:05;;;;;;;8.90;1.40;;;2.40;99.90;;;;;;5130127;27;20201;-75
2021/04/07 03:24:32;;;;;;;13.00;2.00;;;2.40;99.90;;;;;;5111203;28;20621;-75
2021/04/07 03:26:58;;;;;;;6.90;1.70;;;2.30;99.90;;;;;;5117633;28;20170;-75
2021/04/07 03:29:23;;;;;;;6.57;1.77;;;2.40;99.90;;;;;;5116030;28;20627;-75
2021/04/07 03:31:49;;;;;;;5.40;1.80;;;2.30;99.90;;;;;;5096855;28;20259;-75
2021/04/07 03:34:15;;;;;;;9.57;2.07;;;2.40;99.90;;;;;;5115777;28;20275;-75
2021/04/07 03:36:40;;;;;;;4.43;1.70;;;2.50;99.90;;;;;;5116598;28;20257;-75
2021/04/07 03:39:06;;;;;;;8.40;2.00;;;2.40;99.90;;;;;;5117407;28;20166;-75
2021/04/07 03:41:32;;;;;;;8.30;1.60;;;2.40;99.90;;;;;;5117291;28;20172;-75
2021/04/07 03:43:57;;;;;;;10.53;2.40;;;2.30;99.90;;;;;;5117806;28;20176;-75
2021/04/07 03:46:23;;;;;;;8.27;2.03;;;2.30;99.90;;;;;;5116090;28;20519;-75
2021/04/07 03:48:49;;;;;;;8.07;1.83;;;2.30;99.90;;;;;;5095530;28;20167;-75
2021/04/07 03:51:15;;;;;;;13.00;2.17;;;2.30;99.90;;;;;;5097203;28;20255;-75
2021/04/07 03:53:41;;;;;;;6.50;1.83;;;2.30;99.90;;;;;;5116704;28;20775;-75
2021/04/07 03:56:06;;;;;;;11.50;2.80;;;2.30;99.90;;;;;;5115718;28;20204;-75
2021/04/07 03:58:32;;;;;;;19.60;2.07;;;2.30;99.90;;;;;;5116836;28;20634;-75
2021/04/07 04:00:58;;;;;;;15.17;2.23;;;2.30;99.90;;;;;;5116766;28;20165;-75
2021/04/07 04:03:24;;;;;;;5.43;1.87;;;2.30;99.90;;;;;;5114472;28;20181;-75
2021/04/07 04:05:50;;;;;;;10.27;2.23;;;2.30;99.90;;;;;;5129207;27;20525;-75
2021/04/07 04:08:16;;;;;;;9.20;2.10;;;2.40;99.90;;;;;;5129275;27;20529;-75
2021/04/07 04:10:42;;;;;;;12.93;3.60;;;2.40;99.90;;;;;;5095999;28;20571;-75
2021/04/07 04:13:07;;;;;;;12.67;2.33;;;2.50;99.90;;;;;;5096099;28;20193;-75
2021/04/07 04:15:34;;;;;;;10.03;2.00;;;2.40;99.90;;;;;;5129029;27;20181;-75
2021/04/07 04:18:00;;;;;;;6.73;1.80;;;2.40;99.90;;;;;;5096160;28;20495;-75
2021/04/07 04:20:25;;;;;;;15.43;2.80;;;2.50;99.90;;;;;;5095852;28;20169;-76
2021/04/07 04:22:51;;;;;;;13.10;2.93;;;2.50;99.90;;;;;;5095493;28;20173;-75
2021/04/07 04:25:19;;;;;;;12.80;2.53;;;2.50;99.90;;;;;;5096066;28;20198;-75
2021/04/07 04:27:45;;;;;;;10.03;2.90;;;2.50;99.90;;;;;;5095862;28;20162;-75
2021/04/07 04:30:14;;;;;;;9.17;2.27;;;2.30;99.90;;;;;;5095945;28;20164;-75
2021/04/07 04:32:41;;;;;;;12.00;2.20;;;2.40;99.90;;;;;;5141280;27;20195;-75
2021/04/07 04:35:08;;;;;;;8.60;2.23;;;2.40;99.90;;;;;;5114897;28;20625;-75
2021/04/07 04:37:34;;;;;;;13.07;2.70;;;2.50;99.90;;;;;;5113263;28;20181;-75
2021/04/07 04:39:59;;;;;;;9.07;2.90;;;2.50;99.90;;;;;;5095782;28;20253;-75
2021/04/07 04:42:25;;;;;;;12.50;2.57;;;2.50;99.90;;;;;;5095555;28;20173;-75
2021/04/07 04:44:51;;;;;;;17.70;3.23;;;2.50;99.90;;;;;;5095634;28;20170;-76
2021/04/07 04:47:17;;;;;;;11.73;2.50;;;2.50;99.90;;;;;;5095350;28;20577;-75
2021/04/07 04:49:43;;;;;;;18.37;2.83;;;2.50;99.90;;;;;;5095609;28;20166;-75
2021/04/07 04:52:08;;;;;;;10.73;2.83;;;2.40;99.90;;;;;;5095539;28;20170;-75
2021/04/07 04:54:34;;;;;;;12.30;2.67;;;2.50;99.90;;;;;;5097961;28;20194;-75
2021/04/07 04:56:59;;;;;;;12.30;3.07;;;2.40;99.90;;;;;;5115367;28;20645;-74
2021/04/07 04:59:25;;;;;;;9.90;2.13;;;2.30;99.90;;;;;;5114973;28;20176;-75
2021/04/07 05:01:51;;;;;;;14.00;2.10;;;2.40;99.90;;;;;;5115535;28;20173;-75
2021/04/07 05:04:16;;;;;;;25.63;2.90;;;2.40;99.90;;;;;;5114381;28;20165;-75
2021/04/07 05:06:42;;;;;;;20.60;3.83;;;2.40;99.90;;;;;;5114368;28;20238;-75
2021/04/07 05:09:08;;;;;;;18.67;2.67;;;2.50;99.90;;;;;;5113976;28;20260;-74
2021/04/07 05:11:34;;;;;;;7.70;2.20;;;2.40;99.90;;;;;;5111418;28;20268;-75
2021/04/07 05:14:00;;;;;;;14.50;2.73;;;2.40;99.90;;;;;;5128306;27;20193;-75
2021/04/07 05:16:26;;;;;;;10.30;3.20;;;2.50;99.90;;;;;;5099513;28;20201;-75
2021/04/07 05:18:52;;;;;;;35.83;4.07;;;2.40;99.90;;;;;;5114115;28;20544;-76
2021/04/07 05:21:18;;;;;;;13.37;3.23;;;2.50;99.90;;;;;;5114193;28;20229;-75
2021/04/07 05:23:44;;;;;;;6.53;2.47;;;2.40;99.90;;;;;;5114128;28;20165;-75
2021/04/07 05:26:10;;;;;;;17.97;3.30;;;2.40;99.90;;;;;;5115393;28;20214;-75
2021/04/07 05:28:36;;;;;;;11.73;2.67;;;2.40;99.90;;;;;;5110575;28;20637;-75
2021/04/07 05:31:02;;;;;;;12.37;2.93;;;2.50;99.90;;;;;;5114765;28;20197;-75
2021/04/07 05:33:34;;;;;;;9.37;2.93;;;2.50;99.90;;;;;;5114120;28;20201;-75
2021/04/07 05:36:02;;;;;;;9.60;2.60;;;2.50;99.90;;;;;;5115040;28;20170;-75
2021/04/07 05:38:28;;;;;;;19.13;2.87;;;2.60;99.90;;;;;;5113575;28;20258;-75
2021/04/07 05:40:57;;;;;;;21.33;3.53;;;2.60;99.90;;;;;;5114956;28;20246;-75
2021/04/07 05:43:23;;;;;;;11.20;2.03;;;2.60;99.90;;;;;;5115162;28;20200;-74
2021/04/07 05:45:49;;;;;;;11.80;2.87;;;2.70;99.90;;;;;;5109741;28;20547;-75
2021/04/07 05:48:15;;;;;;;9.83;2.63;;;2.60;99.90;;;;;;5094401;28;20173;-74
2021/04/07 05:50:43;;;;;;;19.23;2.77;;;2.60;99.90;;;;;;5102267;28;20165;-75
2021/04/07 05:53:09;;;;;;;14.23;2.80;;;2.70;99.90;;;;;;5114477;28;20193;-75
2021/04/07 05:55:36;;;;;;;11.97;3.00;;;2.70;99.90;;;;;;5113494;28;20179;-74
2021/04/07 05:58:04;;;;;;;19.97;2.53;;;2.80;99.90;;;;;;5113394;28;20176;-75
2021/04/07 06:00:31;;;;;;;9.87;2.57;;;2.90;99.90;;;;;;5094054;28;20257;-75
2021/04/07 06:02:59;;;;;;;11.20;2.67;;;2.90;99.90;;;;;;5094180;28;20235;-75
2021/04/07 06:05:27;;;;;;;17.73;2.90;;;2.90;99.90;;;;;;5094144;28;20162;-74
2021/04/07 06:07:53;;;;;;;13.77;3.37;;;3.00;99.90;;;;;;5092658;28;20611;-75
2021/04/07 06:10:18;;;;;;;12.93;2.70;;;3.00;99.90;;;;;;5094078;28;20198;-75
2021/04/07 06:12:44;;;;;;;16.33;2.70;;;3.00;99.90;;;;;;5093910;28;20185;-75
2021/04/07 06:15:11;;;;;;;7.40;2.30;;;3.10;99.90;;;;;;5092755;28;20182;-75
2021/04/07 06:17:38;;;;;;;15.77;2.93;;;3.10;99.90;;;;;;5092512;28;20257;-75
2021/04/07 06:20:08;;;;;;;9.90;2.93;;;3.20;99.90;;;;;;5092940;28;20630;-75
2021/04/07 06:22:35;;;;;;;11.13;2.40;;;3.30;99.90;;;;;;5093767;28;20257;-74
2021/04/07 06:25:02;;;;;;;14.03;2.63;;;3.30;99.90;;;;;;5093467;28;20181;-75
2021/04/07 06:27:28;;;;;;;9.53;2.23;;;3.30;99.90;;;;;;5093696;28;20197;-75
2021/04/07 06:29:53;;;;;;;7.10;2.37;;;3.40;99.90;;;;;;5107186;28;20205;-75
2021/04/07 06:32:19;;;;;;;12.63;2.53;;;3.60;99.90;;;;;;5113879;28;20185;-75
2021/04/07 06:34:45;;;;;;;7.87;1.97;;;3.70;99.90;;;;;;5095641;28;20193;-75
2021/04/07 06:37:10;;;;;;;12.63;1.93;;;3.80;99.90;;;;;;5095894;28;20189;-74
2021/04/07 06:39:37;;;;;;;7.43;2.20;;;3.80;99.90;;;;;;5114028;28;20609;-75
2021/04/07 06:42:05;;;;;;;10.27;2.37;;;3.90;99.90;;;;;;5113985;28;20162;-74
2021/04/07 06:44:31;;;;;;;6.53;2.30;;;3.80;99.90;;;;;;5113621;28;20242;-75
2021/04/07 06:46:57;;;;;;;6.33;1.83;;;3.80;99.90;;;;;;5098876;28;20208;-75
2021/04/07 06:49:26;;;;;;;6.80;2.10;;;3.80;99.90;;;;;;5093602;28;20208;-75
2021/04/07 06:51:55;;;;;;;12.57;2.50;;;3.80;99.90;;;;;;5093492;28;20162;-75
2021/04/07 06:54:22;;;;;;;6.47;2.40;;;3.80;99.90;;;;;;5093988;28;20189;-75
2021/04/07 06:56:51;;;;;;;5.77;2.10;;;3.90;99.90;;;;;;5093583;28;20176;-74
2021/04/07 06:59:17;;;;;;;7.00;2.20;;;4.00;99.90;;;;;;5107285;28;20181;-74
2021/04/07 07:01:43;;;;;;;4.40;2.30;;;3.90;99.90;;;;;;5112349;28;20265;-74
2021/04/07 07:04:09;;;;;;;5.53;2.40;;;3.90;99.90;;;;;;5112389;28;20625;-75
2021/04/07 07:06:34;;;;;;;11.87;2.23;;;3.80;99.90;;;;;;5113613;28;20165;-75
2021/04/07 07:09:17;;;;;;;14.27;3.60;;;4.00;99.90;;;;;;5112487;28;20169;-75
2021/04/07 07:11:47;;;;;;;10.43;2.43;;;3.90;99.90;;;;;;5112763;28;20169;-75
2021/04/07 07:14:14;;;;;;;6.13;2.37;;;3.80;99.90;;;;;;5112408;28;20385;-75
2021/04/07 07:16:44;;;;;;;9.50;2.67;;;3.70;99.90;;;;;;5112207;28;20169;-75
2021/04/07 07:19:20;;;;;;;6.63;2.67;;;3.60;99.90;;;;;;5113603;28;20218;-76
2021/04/07 07:21:54;;;;;;;5.37;1.93;;;3.60;99.90;;;;;;5112384;28;20161;-76
2021/04/07 07:24:30;;;;;;;12.30;2.10;;;3.70;99.90;;;;;;5112489;28;20217;-76
2021/04/07 07:26:57;;;;;;;4.83;1.90;;;3.60;99.90;;;;;;5112802;28;20241;-75
2021/04/07 07:29:40;;;;;;;11.70;2.20;;;3.50;99.90;;;;;;5101482;28;20174;-75
2021/04/07 07:32:09;;;;;;;3.27;2.10;;;3.60;99.90;;;;;;5125554;27;20537;-75
2021/04/07 07:34:35;;;;;;;5.13;1.80;;;3.70;99.90;;;;;;5092740;28;20308;-75
2021/04/07 07:37:04;;;;;;;4.77;1.90;;;3.70;99.90;;;;;;5093154;28;20197;-75
2021/04/07 07:39:31;;;;;;;9.00;2.57;;;3.80;99.90;;;;;;5093422;28;20514;-74
2021/04/07 07:42:02;;;;;;;7.97;2.00;;;3.90;99.90;;;;;;5103384;28;20698;-76
2021/04/07 07:44:30;;;;;;;7.63;2.10;;;4.00;99.90;;;;;;5111652;28;20181;-75
2021/04/07 07:47:03;;;;;;;4.27;1.93;;;4.10;99.90;;;;;;5111775;28;20265;-75
2021/04/07 07:49:30;;;;;;;8.03;1.90;;;4.20;99.90;;;;;;5113541;28;20181;-74
2021/04/07 07:51:57;;;;;;;7.77;2.00;;;4.30;99.90;;;;;;5113357;28;20165;-75
2021/04/07 07:54:24;;;;;;;12.67;2.03;;;4.30;99.90;;;;;;5113224;28;20545;-75
2021/04/07 07:56:51;;;;;;;9.10;2.37;;;4.20;99.90;;;;;;5112057;28;20205;-75
2021/04/07 07:59:30;;;;;;;12.63;2.37;;;4.20;99.90;;;;;;5115674;28;20166;-75
2021/04/07 08:01:56;;;;;;;17.03;2.67;;;4.30;99.90;;;;;;5115467;28;20207;-75
2021/04/07 08:04:23;;;;;;;8.23;1.90;;;4.30;99.90;;;;;;5115189;28;20185;-76
2021/04/07 08:06:48;;;;;;;6.97;2.87;;;4.40;99.90;;;;;;5116606;28;20685;-75
2021/04/07 08:09:14;;;;;;;17.50;2.50;;;4.50;99.90;;;;;;5115390;28;20193;-75
2021/04/07 08:11:47;;;;;;;8.13;2.03;;;4.60;99.90;;;;;;5116169;28;20165;-75
2021/04/07 08:14:16;;;;;;;4.77;2.20;;;4.60;99.90;;;;;;5116304;28;20228;-75
2021/04/07 08:16:46;;;;;;;10.50;3.17;;;4.70;99.90;;;;;;5115555;28;20199;-75
2021/04/07 08:19:14;;;;;;;12.70;2.50;;;4.90;99.90;;;;;;5116587;28;20177;-75
2021/04/07 08:21:45;;;;;;;9.70;2.43;;;4.90;99.90;;;;;;5094898;28;20182;-75
2021/04/07 08:24:12;;;;;;;10.30;2.53;;;4.90;99.90;;;;;;5104178;28;20189;-76
2021/04/07 08:26:42;;;;;;;12.03;2.17;;;5.10;99.90;;;;;;5113119;28;20177;-75
2021/04/07 08:29:08;;;;;;;6.10;1.97;;;5.10;99.90;;;;;;5096620;28;20223;-75
2021/04/07 08:31:36;;;;;;;13.47;2.57;;;4.80;99.90;;;;;;5113514;28;20180;-76
2021/04/07 08:34:09;;;;;;;18.07;2.10;;;4.80;99.90;;;;;;5113826;28;20352;-75
2021/04/07 08:36:35;;;;;;;7.87;2.67;;;4.70;99.90;;;;;;5102292;28;20277;-75
2021/04/07 08:39:06;;;;;;;13.60;2.67;;;4.80;99.90;;;;;;5110369;28;20189;-75
2021/04/07 08:41:32;;;;;;;7.97;2.33;;;4.80;99.90;;;;;;5112864;28;20642;-76
2021/04/07 08:44:02;;;;;;;11.30;2.13;;;4.90;99.90;;;;;;5113680;28;20291;-75
2021/04/07 08:46:39;;;;;;;6.07;2.00;;;5.20;99.90;;;;;;5096427;28;20540;-75
2021/04/07 08:49:05;;;;;;;10.07;1.93;;;5.40;99.90;;;;;;5096030;28;20692;-75
2021/04/07 08:51:35;;;;;;;15.53;3.83;;;5.60;99.90;;;;;;5113154;28;20290;-74
2021/04/07 08:54:01;;;;;;;13.70;2.83;;;5.90;99.90;;;;;;5115730;28;20249;-75
2021/04/07 08:56:32;;;;;;;8.33;2.83;;;6.00;99.90;;;;;;5115279;28;20623;-75
2021/04/07 08:59:02;;;;;;;7.77;2.43;;;6.00;99.90;;;;;;5114314;28;20165;-75
2021/04/07 09:01:35;;;;;;;6.90;2.57;;;6.20;99.90;;;;;;5094266;28;20261;-76
2021/04/07 09:04:18;;;;;;;5.70;2.10;;;6.30;99.90;;;;;;5077191;28;20642;-76
2021/04/07 09:07:00;;;;;;;14.93;3.13;;;6.70;99.90;;;;;;5097234;28;20150;-75
2021/04/07 09:09:27;;;;;;;10.00;2.63;;;6.80;99.90;;;;;;5115423;28;20260;-75
2021/04/07 09:11:53;;;;;;;9.33;2.33;;;6.80;99.90;;;;;;5115531;28;20271;-75
2021/04/07 09:14:21;;;;;;;12.30;3.03;;;6.60;99.90;;;;;;5114349;28;20200;-75
2021/04/07 09:16:47;;;;;;;10.83;3.30;;;6.60;99.90;;;;;;5115514;28;20646;-75
2021/04/07 09:19:17;;;;;;;14.00;3.67;;;6.70;99.90;;;;;;5096689;28;20173;-75
2021/04/07 09:22:09;;;;;;;14.57;3.10;;;6.90;99.90;;;;;;5113904;28;20161;-75
2021/04/07 09:24:43;;;;;;;12.10;2.73;;;7.20;99.90;;;;;;5114030;28;20169;-75
2021/04/07 09:27:24;;;;;;;18.43;3.30;;;7.20;99.90;;;;;;5115666;28;20482;-75
2021/04/07 09:29:51;;;;;;;15.97;2.67;;;7.20;99.90;;;;;;5120212;28;20233;-75
2021/04/07 09:32:22;;;;;;;14.40;2.63;;;7.30;99.90;;;;;;5126254;28;20185;-75
2021/04/07 09:34:48;;;;;;;9.40;2.63;;;7.30;99.90;;;;;;5132927;28;20212;-75
2021/04/07 09:37:15;;;;;;;10.73;2.63;;;7.30;99.90;;;;;;5119318;28;22190;-76
2021/04/07 09:39:41;;;;;;;14.93;3.30;;;7.40;99.90;;;;;;5113503;28;20260;-75
2021/04/07 09:42:08;;;;;;;11.73;3.13;;;7.20;99.90;;;;;;5115054;28;20162;-75
2021/04/07 09:44:34;;;;;;;17.90;3.10;;;7.40;99.90;;;;;;5113526;28;20585;-75
2021/04/07 09:46:59;;;;;;;11.77;3.60;;;7.80;99.90;;;;;;5114811;28;20216;-75
2021/04/07 09:49:27;;;;;;;10.90;3.60;;;7.80;99.90;;;;;;5112645;28;20173;-75
2021/04/07 09:51:54;;;;;;;13.93;2.83;;;7.90;99.90;;;;;;5113864;28;20173;-75
2021/04/07 09:54:21;;;;;;;15.80;2.80;;;8.10;99.90;;;;;;5114445;28;20668;-76
2021/04/07 09:56:57;;;;;;;14.77;3.23;;;8.20;99.90;;;;;;5112933;28;20185;-75
2021/04/07 09:59:42;;;;;;;15.73;2.80;;;8.40;99.90;;;;;;5113301;28;20214;-75
2021/04/07 10:02:12;;;;;;;18.43;3.00;;;8.40;99.90;;;;;;5109776;27;20282;-75
2021/04/07 10:04:43;;;;;;;10.60;2.53;;;8.90;99.90;;;;;;5112946;28;20173;-75
2021/04/07 10:07:27;;;;;;;8.37;2.87;;;8.80;99.90;;;;;;5113114;28;20165;-75
2021/04/07 10:09:53;;;;;;;15.00;2.83;;;9.00;99.90;;;;;;5112793;28;20170;-76
2021/04/07 10:12:22;;;;;;;18.10;3.13;;;8.90;99.90;;;;;;5114266;28;20169;-76
2021/04/07 10:14:51;;;;;;;11.15;3.38;;;8.90;99.90;;;;;;5112494;28;20528;-76
2021/04/07 10:17:19;;;;;;;20.83;3.17;;;9.10;99.90;;;;;;5112908;28;20529;-76
2021/04/07 10:19:46;;;;;;;12.05;2.55;;;9.20;99.90;;;;;;5113405;28;20176;-75
2021/04/07 10:22:18;;;;;;;12.60;2.53;;;9.20;99.90;;;;;;5112646;28;20526;-75
2021/04/07 10:24:46;;;;;;;12.00;3.60;;;8.90;99.90;;;;;;5113169;28;20169;-75
2021/04/07 10:27:22;;;;;;;13.40;2.97;;;8.40;99.90;;;;;;5113845;28;20633;-76
2021/04/07 10:29:49;;;;;;;21.23;3.87;;;8.30;99.90;;;;;;5113514;28;20251;-75
2021/04/07 10:32:18;;;;;;;11.70;3.20;;;8.20;99.90;;;;;;5094821;28;20192;-75
2021/04/07 10:34:47;;;;;;;12.10;3.47;;;8.30;99.90;;;;;;5113254;28;20231;-76
2021/04/07 10:37:17;;;;;;;16.93;2.87;;;8.30;99.90;;;;;;5113696;28;20528;-76
2021/04/07 10:39:43;;;;;;;8.73;3.07;;;8.00;99.90;;;;;;5112226;28;20181;-76
2021/04/07 10:42:14;;;;;;;9.60;3.50;;;8.00;99.90;;;;;;5114048;28;20543;-77
2021/04/07 10:44:40;;;;;;;16.10;4.07;;;7.90;99.90;;;;;;5112039;28;20161;-77
2021/04/07 10:47:18;;;;;;;28.87;5.90;;;7.90;99.90;;;;;;5111935;28;20351;-76
2021/04/07 10:49:57;;;;;;;17.83;3.93;;;7.90;99.90;;;;;;5112245;28;20173;-76
2021/04/07 10:52:42;;;;;;;10.47;3.23;;;8.00;99.90;;;;;;5093398;28;20166;-75
2021/04/07 10:55:10;;;;;;;19.87;3.60;;;8.10;99.90;;;;;;5098525;28;20177;-75
2021/04/07 10:57:41;;;;;;;21.53;3.63;;;7.80;99.90;;;;;;5113676;28;20182;-75
2021/04/07 11:00:10;;;;;;;17.77;4.47;;;7.60;99.90;;;;;;5113468;28;20196;-78
2021/04/07 11:02:43;;;;;;;25.80;3.40;;;7.80;99.90;;;;;;5112103;28;20532;-75
2021/04/07 11:05:14;;;;;;;15.43;4.47;;;7.90;99.90;;;;;;5113239;28;20176;-76
2021/04/07 11:07:40;;;;;;;12.37;3.93;;;8.10;99.90;;;;;;5112015;28;20209;-75
2021/04/07 11:10:08;;;;;;;14.03;3.37;;;8.10;99.90;;;;;;5113743;28;20197;-75
2021/04/07 11:12:34;;;;;;;18.47;4.10;;;8.10;99.90;;;;;;5112208;28;20260;-75
2021/04/07 11:15:05;;;;;;;11.93;3.40;;;7.90;99.90;;;;;;5111528;28;20289;-76
2021/04/07 11:17:31;;;;;;;13.53;3.67;;;8.00;99.90;;;;;;5112984;28;20177;-74
2021/04/07 11:19:57;;;;;;;20.77;3.50;;;7.90;99.90;;;;;;5113153;28;20184;-76
2021/04/07 11:22:22;;;;;;;20.43;3.57;;;7.90;99.90;;;;;;5113080;28;20256;-76
2021/04/07 11:24:48;;;;;;;20.80;4.00;;;8.10;99.90;;;;;;5111787;28;20648;-76
2021/04/07 11:27:14;;;;;;;19.87;4.20;;;7.90;99.90;;;;;;5112006;28;20174;-76
2021/04/07 11:29:39;;;;;;;22.13;3.90;;;8.00;99.90;;;;;;5113507;28;20646;-76
2021/04/07 11:32:07;;;;;;;11.23;3.67;;;7.90;99.90;;;;;;5113691;28;20181;-75
2021/04/07 11:34:38;;;;;;;20.57;3.00;;;7.90;99.90;;;;;;5116732;28;20190;-75
2021/04/07 11:39:41;;;;;;;27.17;4.03;;;8.00;99.90;;;;;;5117101;28;20179;-76
2021/04/07 11:42:21;;;;;;;13.40;2.83;;;8.20;99.90;;;;;;5117238;28;20211;-75
2021/04/07 11:44:47;;;;;;;13.32;4.38;;;8.10;99.90;;;;;;5116761;28;20188;-75
2021/04/07 11:47:12;;;;;;;14.97;3.23;;;8.20;99.90;;;;;;5115825;28;20684;-77
2021/04/07 11:49:38;;;;;;;20.80;4.10;;;8.50;99.90;;;;;;5115978;28;20176;-77
2021/04/07 11:52:05;;;;;;;12.05;3.05;;;8.70;99.90;;;;;;5117183;28;20196;-76
2021/04/07 11:54:30;;;;;;;14.30;3.33;;;8.80;99.90;;;;;;5115178;28;20185;-76
2021/04/07 11:56:56;;;;;;;12.85;3.13;;;9.30;99.90;;;;;;5116795;28;20189;-76
2021/04/07 11:59:24;;;;;;;9.05;3.17;;;9.20;99.90;;;;;;5098388;28;20511;-76
2021/04/07 12:01:51;;;;;;;22.33;3.50;;;8.90;99.90;;;;;;5115386;28;20173;-77
2021/04/07 12:04:18;;;;;;;10.80;3.53;;;8.70;99.90;;;;;;5115137;28;20613;-77
2021/04/07 12:06:44;;;;;;;15.35;3.38;;;8.70;99.90;;;;;;5116605;28;20177;-76
2021/04/07 12:09:10;;;;;;;17.33;2.97;;;8.30;99.90;;;;;;5115376;28;20165;-76
2021/04/07 12:11:36;;;;;;;15.53;3.63;;;8.30;99.90;;;;;;5115505;28;20605;-75
2021/04/07 12:14:03;;;;;;;16.87;3.23;;;8.50;99.90;;;;;;5115393;28;20192;-76
2021/04/07 12:16:29;;;;;;;12.77;3.70;;;8.50;99.90;;;;;;5115000;28;20242;-76
2021/04/07 12:18:55;;;;;;;20.20;3.90;;;8.80;99.90;;;;;;5116465;28;20173;-76
2021/04/07 12:21:21;;;;;;;14.57;3.17;;;8.80;99.90;;;;;;5115440;28;20256;-75
2021/04/07 12:23:47;;;;;;;11.02;2.90;;;9.10;99.90;;;;;;5116055;28;20669;-76
2021/04/07 12:26:16;;;;;;;9.73;2.78;;;9.60;99.90;;;;;;5113246;28;20288;-75
2021/04/07 12:28:45;;;;;;;18.90;2.75;;;9.50;99.90;;;;;;5114560;28;20184;-76
2021/04/07 12:31:17;;;;;;;12.75;2.90;;;9.50;99.90;;;;;;5114405;28;20174;-75
2021/04/07 12:33:49;;;;;;;17.25;3.25;;;9.30;99.90;;;;;;5114148;28;20214;-76
2021/04/07 12:36:16;;;;;;;14.55;3.13;;;9.60;99.90;;;;;;5114941;28;20191;-77
2021/04/07 12:38:41;;;;;;;10.75;2.67;;;10.00;99.90;;;;;;5116153;28;20211;-77
2021/04/07 12:41:12;;;;;;;9.45;3.28;;;10.10;99.90;;;;;;5115965;28;20166;-77
2021/04/07 12:43:38;;;;;;;16.23;3.25;;;10.40;99.90;;;;;;5115835;28;20257;-76
2021/04/07 12:46:04;;;;;;;13.88;3.28;;;10.70;99.90;;;;;;5116217;28;20260;-77
2021/04/07 12:48:29;;;;;;;10.10;2.78;;;11.40;99.90;;;;;;5116140;28;20214;-76
2021/04/07 12:50:55;;;;;;;10.13;2.15;;;12.00;99.90;;;;;;5115872;28;20218;-76
2021/04/07 12:53:21;;;;;;;4.53;2.03;;;11.50;99.90;;;;;;5114081;28;20227;-76
2021/04/07 12:55:46;;;;;;;7.05;2.13;;;11.60;99.90;;;;;;5115608;28;20256;-75